Time;durP1;ratioP1;P1;durP2;ratioP2;P2;SDS_P1;SDS_P2;PMS_P1;PMS_P2;Temp;Humidity;BMP_temperature;BMP_pressure;BME280_temperature;BME280_humidity;BME280_pressure;Samples;Min_cycle;Max_cycle;Signal;HPM_P1;HPM_P2
2023/11/10 00:01:48;;;;;;;18.10;8.90;;;;;;;8.80;47.44;101250.94;110004;1277;22016;-60
2023/11/10 00:04:16;;;;;;;12.30;8.10;;;;;;;8.70;47.56;101244.02;110020;1279;21965;-59
2023/11/10 00:06:43;;;;;;;14.90;8.00;;;;;;;8.68;47.83;101244.17;110018;1279;21942;-74
2023/11/10 00:09:09;;;;;;;16.20;8.60;;;;;;;8.68;47.78;101244.34;110021;1277;22026;-74
2023/11/10 00:11:34;;;;;;;13.10;7.40;;;;;;;8.67;47.83;101244.17;109242;1274;1002818;-73
2023/11/10 00:14:00;;;;;;;17.70;7.80;;;;;;;8.65;47.83;101240.83;109268;1285;1002831;-75
2023/11/10 00:16:25;;;;;;;15.10;7.60;;;;;;;8.63;47.75;101243.24;109262;1281;1002889;-59
2023/11/10 00:18:56;;;;;;;13.50;8.00;;;;;;;8.62;47.83;101244.29;109252;1275;1002185;-74
2023/11/10 00:21:23;;;;;;;13.10;7.30;;;;;;;8.61;47.98;101239.73;110008;1273;21989;-60
2023/11/10 00:23:49;;;;;;;14.80;7.80;;;;;;;8.61;47.83;101237.45;110000;1285;21970;-74
2023/11/10 00:26:19;;;;;;;16.40;8.10;;;;;;;8.61;47.86;101235.88;110018;1274;22017;-61
2023/11/10 00:28:45;;;;;;;15.10;8.30;;;;;;;8.61;47.98;101233.61;110034;1285;21929;-60
2023/11/10 00:31:11;;;;;;;17.50;9.30;;;;;;;8.60;48.00;101237.11;110019;1283;22018;-60
2023/11/10 00:33:36;;;;;;;15.80;9.90;;;;;;;8.57;48.02;101238.66;110012;1274;21930;-59
2023/11/10 00:36:03;;;;;;;14.90;9.70;;;;;;;8.54;47.82;101232.67;109252;1285;1002576;-60
2023/11/10 00:38:29;;;;;;;15.80;7.80;;;;;;;8.50;47.85;101232.27;110034;1274;21961;-73
2023/11/10 00:40:54;;;;;;;16.50;8.50;;;;;;;8.48;47.78;101236.09;110010;1275;22004;-61
2023/11/10 00:43:20;;;;;;;14.90;8.50;;;;;;;8.44;47.79;101237.44;110032;1279;21945;-73
2023/11/10 00:45:45;;;;;;;15.70;9.40;;;;;;;8.41;47.85;101239.14;110014;1281;21932;-59
2023/11/10 00:48:11;;;;;;;15.90;9.10;;;;;;;8.38;47.72;101243.67;110031;1283;21899;-59
2023/11/10 00:50:37;;;;;;;15.30;9.10;;;;;;;8.38;47.90;101238.61;110002;1285;21960;-73
2023/11/10 00:53:03;;;;;;;14.90;8.60;;;;;;;8.40;48.13;101240.72;110017;1283;21941;-61
2023/11/10 00:55:29;;;;;;;14.80;9.80;;;;;;;8.45;48.23;101237.09;110023;1278;21953;-60
2023/11/10 00:57:55;;;;;;;13.90;8.70;;;;;;;8.48;48.18;101238.37;110014;1285;22405;-73
2023/11/10 01:00:20;;;;;;;15.90;8.30;;;;;;;8.50;48.34;101238.58;110016;1280;21931;-72
2023/11/10 01:02:49;;;;;;;13.50;7.90;;;;;;;8.55;48.56;101234.79;110020;1285;21931;-59
2023/11/10 01:05:19;;;;;;;14.40;8.30;;;;;;;8.58;48.44;101232.37;110025;1275;21934;-72
2023/11/10 01:07:45;;;;;;;13.40;7.60;;;;;;;8.57;48.06;101228.86;110005;1285;21938;-72
2023/11/10 01:10:12;;;;;;;11.90;7.60;;;;;;;8.54;47.90;101226.37;110008;1279;22470;-66
2023/11/10 01:12:40;;;;;;;12.20;7.40;;;;;;;8.52;47.93;101228.45;110021;1285;21974;-59
2023/11/10 01:15:07;;;;;;;12.90;7.70;;;;;;;8.51;48.03;101225.29;110017;1285;22005;-72
2023/11/10 01:17:33;;;;;;;12.20;7.70;;;;;;;8.49;48.16;101222.48;110013;1280;22412;-72
2023/11/10 01:20:00;;;;;;;14.50;9.00;;;;;;;8.45;47.95;101224.52;110022;1285;21935;-59
2023/11/10 01:22:26;;;;;;;17.50;8.90;;;;;;;8.40;47.88;101224.11;110025;1280;21940;-59
2023/11/10 01:24:52;;;;;;;14.80;9.30;;;;;;;8.37;47.97;101223.55;110005;1279;22489;-73
2023/11/10 01:27:18;;;;;;;13.10;8.60;;;;;;;8.38;47.95;101222.86;109248;1285;1002936;-72
2023/11/10 01:29:47;;;;;;;11.90;7.90;;;;;;;8.36;48.00;101223.02;109271;1281;1002288;-59
2023/11/10 01:32:13;;;;;;;12.10;7.30;;;;;;;8.33;48.03;101223.52;110023;1274;21998;-59
2023/11/10 01:34:39;;;;;;;13.60;7.10;;;;;;;8.32;48.18;101224.02;110015;1274;21923;-72
2023/11/10 01:37:07;;;;;;;14.30;6.80;;;;;;;8.32;48.20;101222.81;110018;1285;21921;-72
2023/11/10 01:39:33;;;;;;;13.50;6.60;;;;;;;8.34;48.19;101215.66;109245;1285;1002152;-59
2023/11/10 01:41:59;;;;;;;10.80;7.70;;;;;;;8.34;48.01;101218.29;110019;1285;21961;-72
2023/11/10 01:44:24;;;;;;;17.90;8.30;;;;;;;8.29;47.89;101218.39;110017;1285;21934;-61
2023/11/10 01:46:51;;;;;;;13.30;7.50;;;;;;;8.25;47.96;101216.59;110006;1274;21875;-73
2023/11/10 01:49:18;;;;;;;14.00;8.50;;;;;;;8.22;48.10;101213.42;110037;1275;21945;-60
2023/11/10 01:51:44;;;;;;;13.60;8.30;;;;;;;8.20;48.24;101214.10;109254;1281;1002666;-59
2023/11/10 01:54:16;;;;;;;11.20;7.50;;;;;;;8.19;48.23;101211.81;109986;1281;21962;-72
2023/11/10 01:56:41;;;;;;;10.90;7.30;;;;;;;8.18;48.34;101210.23;110025;1285;22007;-73
2023/11/10 01:59:09;;;;;;;9.30;6.10;;;;;;;8.22;48.70;101212.20;110000;1274;21835;-72
2023/11/10 02:01:34;;;;;;;9.30;6.50;;;;;;;8.27;48.71;101212.79;110028;1285;22727;-59
2023/11/10 02:04:02;;;;;;;9.40;5.80;;;;;;;8.31;48.59;101210.39;110008;1279;21929;-72
2023/11/10 02:06:29;;;;;;;9.30;5.20;;;;;;;8.31;48.45;101208.46;109233;1285;1002243;-72
2023/11/10 02:08:55;;;;;;;9.30;5.80;;;;;;;8.30;48.43;101211.06;110009;1275;21825;-60
2023/11/10 02:11:20;;;;;;;10.80;5.70;;;;;;;8.31;48.50;101213.52;110002;1285;22007;-72
2023/11/10 02:13:46;;;;;;;11.10;6.30;;;;;;;8.33;48.89;101209.16;110002;1283;21930;-59
2023/11/10 02:16:11;;;;;;;14.10;6.90;;;;;;;8.40;49.21;101208.35;110029;1285;21987;-72
2023/11/10 02:18:37;;;;;;;11.30;6.00;;;;;;;8.46;49.30;101210.35;110027;1285;21945;-72
2023/11/10 02:21:03;;;;;;;11.10;5.40;;;;;;;8.50;48.94;101214.27;109981;1282;21979;-72
2023/11/10 02:23:28;;;;;;;8.90;5.50;;;;;;;8.52;48.67;101216.04;110017;1280;21937;-60
2023/11/10 02:25:54;;;;;;;8.50;5.50;;;;;;;8.51;48.54;101215.15;109900;1282;21950;-71
2023/11/10 02:28:20;;;;;;;10.40;5.30;;;;;;;8.46;48.35;101207.73;110029;1283;21935;-60
2023/11/10 02:30:46;;;;;;;9.30;5.50;;;;;;;8.42;48.42;101210.83;110023;1280;21939;-60
2023/11/10 02:33:11;;;;;;;10.50;6.70;;;;;;;8.38;48.57;101211.49;110025;1276;21917;-71
2023/11/10 02:35:37;;;;;;;12.40;6.70;;;;;;;8.39;49.06;101210.63;110002;1285;21922;-60
2023/11/10 02:38:02;;;;;;;10.70;7.10;;;;;;;8.46;49.26;101208.27;110023;1276;21949;-59
2023/11/10 02:40:28;;;;;;;11.50;6.50;;;;;;;8.53;49.58;101209.92;110033;1276;21866;-71
2023/11/10 02:42:54;;;;;;;9.90;5.60;;;;;;;8.61;49.61;101208.59;110020;1281;21939;-71
2023/11/10 02:45:19;;;;;;;10.30;6.50;;;;;;;8.68;49.65;101205.67;110003;1279;22452;-71
2023/11/10 02:47:45;;;;;;;12.90;6.40;;;;;;;8.76;49.66;101208.91;110011;1285;21926;-72
2023/11/10 02:50:10;;;;;;;9.10;6.10;;;;;;;8.84;49.61;101207.04;110010;1283;21889;-60
2023/11/10 02:52:36;;;;;;;13.50;6.20;;;;;;;8.88;49.52;101207.05;110051;1283;21962;-60
2023/11/10 02:55:02;;;;;;;9.10;5.60;;;;;;;8.90;49.42;101210.95;110021;1280;21937;-59
2023/11/10 02:57:28;;;;;;;9.10;5.50;;;;;;;8.92;49.31;101211.13;110012;1281;22411;-61
2023/11/10 02:59:53;;;;;;;10.30;6.10;;;;;;;8.91;49.29;101204.30;110008;1285;21951;-59
2023/11/10 03:02:20;;;;;;;10.90;6.00;;;;;;;8.90;49.04;101200.96;110006;1285;21916;-59
2023/11/10 03:04:46;;;;;;;10.60;6.60;;;;;;;8.87;49.09;101204.79;110007;1285;21940;-59
2023/11/10 03:07:12;;;;;;;9.10;6.20;;;;;;;8.86;49.30;101206.36;109242;1283;1002101;-60
2023/11/10 03:09:40;;;;;;;10.50;5.40;;;;;;;8.89;49.90;101202.00;109270;1283;1002044;-72
2023/11/10 03:12:06;;;;;;;9.70;5.60;;;;;;;8.98;50.04;101201.20;110018;1280;21916;-60
2023/11/10 03:14:32;;;;;;;10.10;6.00;;;;;;;9.04;49.66;101203.35;110015;1275;21942;-59
2023/11/10 03:16:58;;;;;;;13.00;6.40;;;;;;;9.04;49.38;101202.30;110025;1285;21955;-60
2023/11/10 03:19:24;;;;;;;9.60;5.00;;;;;;;9.01;49.34;101203.33;110020;1283;21970;-71
2023/11/10 03:21:50;;;;;;;7.40;5.00;;;;;;;8.99;49.31;101203.14;109990;1285;22024;-71
2023/11/10 03:24:15;;;;;;;9.00;5.10;;;;;;;8.97;49.26;101203.11;110003;1283;21974;-60
2023/11/10 03:26:41;;;;;;;8.90;5.60;;;;;;;8.94;49.43;101202.05;110014;1279;21930;-60
2023/11/10 03:29:07;;;;;;;9.50;5.30;;;;;;;8.91;49.17;101201.33;110004;1280;21989;-71
2023/11/10 03:31:34;;;;;;;7.90;5.40;;;;;;;8.84;48.86;101204.95;109965;1285;21955;-71
2023/11/10 03:34:00;;;;;;;13.50;7.20;;;;;;;8.75;48.82;101207.85;109250;1283;1002058;-71
2023/11/10 03:36:25;;;;;;;12.60;5.60;;;;;;;8.69;49.20;101207.27;110008;1277;21930;-60
2023/11/10 03:38:51;;;;;;;10.20;6.00;;;;;;;8.66;49.11;101208.28;110002;1285;22092;-71
2023/11/10 03:41:17;;;;;;;8.60;5.10;;;;;;;8.63;49.02;101209.66;110027;1281;21991;-71
2023/11/10 03:43:43;;;;;;;10.20;5.30;;;;;;;8.61;49.16;101208.60;110003;1274;22002;-59
2023/11/10 03:46:09;;;;;;;9.50;5.30;;;;;;;8.56;49.23;101206.11;109984;1285;22460;-59
2023/11/10 03:48:34;;;;;;;12.00;6.00;;;;;;;8.57;49.31;101205.59;110013;1283;21861;-60
2023/11/10 03:51:00;;;;;;;11.00;6.40;;;;;;;8.60;49.51;101200.88;110028;1283;21926;-71
2023/11/10 03:53:27;;;;;;;9.00;6.30;;;;;;;8.64;49.75;101198.48;110011;1276;21952;-60
2023/11/10 03:55:53;;;;;;;10.60;6.10;;;;;;;8.67;49.56;101196.58;110019;1284;21920;-71
2023/11/10 03:58:18;;;;;;;10.90;5.70;;;;;;;8.63;49.00;101193.75;109979;1283;21950;-60
2023/11/10 04:00:44;;;;;;;7.80;5.00;;;;;;;8.55;48.80;101192.63;110042;1285;21877;-59
2023/11/10 04:03:09;;;;;;;8.20;5.00;;;;;;;8.50;48.97;101194.14;110025;1284;21843;-71
2023/11/10 04:05:36;;;;;;;10.40;5.50;;;;;;;8.47;48.94;101193.91;110020;1281;21948;-60
2023/11/10 04:08:02;;;;;;;9.70;4.90;;;;;;;8.47;49.18;101190.79;110026;1285;21916;-70
2023/11/10 04:10:28;;;;;;;10.80;6.20;;;;;;;8.48;49.10;101193.40;110012;1275;21948;-70
2023/11/10 04:12:54;;;;;;;9.90;5.80;;;;;;;8.44;48.92;101198.08;110032;1274;22038;-70
2023/11/10 04:15:20;;;;;;;10.30;5.70;;;;;;;8.38;48.96;101206.77;109276;1273;1001869;-70
2023/11/10 04:17:45;;;;;;;11.20;6.30;;;;;;;8.33;49.08;101204.27;109271;1283;1002663;-70
2023/11/10 04:20:11;;;;;;;13.10;5.70;;;;;;;8.29;49.13;101207.55;109256;1274;1006011;-59
2023/11/10 04:22:40;;;;;;;12.10;6.30;;;;;;;8.26;49.20;101209.44;109265;1284;1002318;-70
2023/11/10 04:25:07;;;;;;;10.00;5.40;;;;;;;8.26;49.37;101209.79;110014;1282;22000;-60
2023/11/10 04:27:32;;;;;;;13.30;5.40;;;;;;;8.27;49.51;101211.38;110034;1274;22006;-69
2023/11/10 04:30:00;;;;;;;14.00;5.50;;;;;;;8.30;49.59;101212.47;110013;1283;21946;-71
2023/11/10 04:32:25;;;;;;;10.50;6.40;;;;;;;8.35;49.61;101213.22;109999;1283;21875;-59
2023/11/10 04:34:51;;;;;;;12.00;6.00;;;;;;;8.39;49.68;101210.79;109997;1285;21871;-72
2023/11/10 04:37:18;;;;;;;12.50;6.30;;;;;;;8.41;49.46;101208.72;110020;1280;22007;-59
2023/11/10 04:39:43;;;;;;;14.20;5.90;;;;;;;8.41;49.50;101210.48;110017;1285;21949;-71
2023/11/10 04:42:09;;;;;;;10.70;5.90;;;;;;;8.40;49.49;101210.98;109996;1283;22010;-59
2023/11/10 04:44:35;;;;;;;18.40;5.70;;;;;;;8.40;49.58;101210.64;109972;1272;22007;-71
2023/11/10 04:47:01;;;;;;;64.80;8.30;;;;;;;8.41;49.47;101210.81;110005;1274;21987;-60
2023/11/10 04:49:26;;;;;;;60.60;9.80;;;;;;;8.41;49.43;101212.91;110000;1279;21978;-59
2023/11/10 04:51:52;;;;;;;47.10;8.20;;;;;;;8.41;49.42;101214.14;110010;1274;21933;-59
2023/11/10 04:54:18;;;;;;;17.70;6.60;;;;;;;8.42;49.47;101213.96;110017;1285;21990;-59
2023/11/10 04:56:46;;;;;;;43.50;9.10;;;;;;;8.44;49.81;101213.12;110012;1285;21918;-70
2023/11/10 04:59:12;;;;;;;40.70;8.50;;;;;;;8.46;49.63;101212.63;109994;1277;21852;-59
2023/11/10 05:01:38;;;;;;;38.10;7.70;;;;;;;8.50;49.72;101218.45;110017;1277;21978;-60
2023/11/10 05:04:05;;;;;;;41.70;7.00;;;;;;;8.55;50.07;101219.74;110013;1285;21963;-71
2023/11/10 05:06:32;;;;;;;18.80;6.60;;;;;;;8.62;50.40;101219.45;109983;1285;21996;-60
2023/11/10 05:08:58;;;;;;;21.90;6.60;;;;;;;8.70;50.35;101221.81;110004;1285;21943;-59
2023/11/10 05:11:23;;;;;;;12.10;6.00;;;;;;;8.76;50.07;101225.70;110019;1276;21993;-69
2023/11/10 05:13:49;;;;;;;24.50;6.30;;;;;;;8.82;50.06;101224.52;110013;1280;21856;-59
2023/11/10 05:16:19;;;;;;;17.30;5.80;;;;;;;8.83;49.83;101225.59;110011;1283;22471;-69
2023/11/10 05:18:45;;;;;;;18.30;7.00;;;;;;;8.83;49.70;101231.36;110004;1277;21926;-69
2023/11/10 05:21:10;;;;;;;18.10;7.50;;;;;;;8.82;49.68;101236.96;110015;1284;21829;-67
2023/11/10 05:23:36;;;;;;;20.90;8.50;;;;;;;8.82;49.69;101236.98;110034;1279;21918;-62
2023/11/10 05:26:02;;;;;;;16.70;9.70;;;;;;;8.80;49.70;101236.94;109246;1282;1001978;-68
2023/11/10 05:28:28;;;;;;;15.90;9.80;;;;;;;8.78;49.67;101238.85;110031;1283;21947;-69
2023/11/10 05:30:54;;;;;;;15.50;10.20;;;;;;;8.78;49.78;101241.82;109999;1283;21952;-59
2023/11/10 05:33:21;;;;;;;15.40;9.30;;;;;;;8.78;49.74;101243.40;110003;1277;21895;-69
2023/11/10 05:35:47;;;;;;;17.70;8.60;;;;;;;8.80;49.88;101239.55;110016;1274;21950;-69
2023/11/10 05:38:13;;;;;;;25.30;8.70;;;;;;;8.84;50.00;101242.56;110024;1280;21878;-60
2023/11/10 05:40:39;;;;;;;33.80;8.90;;;;;;;8.89;50.11;101248.56;110027;1274;21939;-60
2023/11/10 05:43:05;;;;;;;18.20;8.00;;;;;;;8.94;50.19;101247.73;109992;1280;22000;-68
2023/11/10 05:45:31;;;;;;;21.00;7.80;;;;;;;8.99;50.32;101247.95;110026;1285;21870;-60
2023/11/10 05:47:57;;;;;;;22.50;9.60;;;;;;;9.04;50.44;101247.64;109258;1277;1002321;-59
2023/11/10 05:50:23;;;;;;;24.30;8.40;;;;;;;9.12;50.71;101251.38;109241;1273;1001961;-68
2023/11/10 05:52:49;;;;;;;35.00;8.90;;;;;;;9.31;51.04;101253.96;110016;1285;21839;-61
2023/11/10 05:55:16;;;;;;;22.70;7.60;;;;;;;9.56;51.16;101254.13;110006;1280;22000;-70
2023/11/10 05:57:41;;;;;;;16.20;6.90;;;;;;;9.73;51.02;101253.69;110042;1284;21953;-60
2023/11/10 06:00:08;;;;;;;21.30;7.70;;;;;;;9.85;51.46;101253.23;110013;1283;22015;-60
2023/11/10 06:02:34;;;;;;;16.60;7.00;;;;;;;9.99;51.76;101251.36;110011;1279;21944;-71
2023/11/10 06:04:59;;;;;;;21.00;7.70;;;;;;;10.14;52.23;101256.85;109993;1285;21991;-70
2023/11/10 06:07:25;;;;;;;16.00;8.40;;;;;;;10.31;52.52;101254.98;110032;1283;21881;-70
2023/11/10 06:09:51;;;;;;;13.00;7.40;;;;;;;10.47;52.72;101255.23;110026;1282;21956;-59
2023/11/10 06:12:17;;;;;;;15.30;7.30;;;;;;;10.65;53.27;101255.61;110022;1276;21848;-70
2023/11/10 06:14:43;;;;;;;10.10;6.60;;;;;;;10.86;53.62;101258.25;107731;1285;1002698;-70
2023/11/10 06:17:08;;;;;;;9.70;6.70;;;;;;;11.07;53.84;101260.02;110033;1285;22429;-70
2023/11/10 06:19:34;;;;;;;12.20;6.90;;;;;;;11.28;54.30;101254.90;110013;1285;22333;-70
2023/11/10 06:22:00;;;;;;;12.90;5.90;;;;;;;11.51;54.20;101253.27;110047;1285;21940;-60
2023/11/10 06:24:26;;;;;;;10.10;5.90;;;;;;;11.73;54.37;101256.05;110012;1285;21958;-72
2023/11/10 06:26:51;;;;;;;10.80;6.40;;;;;;;11.96;54.52;101257.20;110007;1283;21991;-60
2023/11/10 06:29:18;;;;;;;16.40;6.90;;;;;;;12.19;54.49;101255.19;110012;1280;22024;-70
2023/11/10 06:31:45;;;;;;;17.00;6.50;;;;;;;12.43;54.79;101254.18;110019;1274;21905;-70
2023/11/10 06:34:10;;;;;;;12.50;5.40;;;;;;;12.67;54.98;101250.15;110018;1281;21958;-60
2023/11/10 06:36:36;;;;;;;7.50;4.50;;;;;;;12.91;54.91;101248.21;110024;1283;21913;-62
2023/11/10 06:39:02;;;;;;;6.40;4.30;;;;;;;13.16;54.67;101249.59;110021;1275;22309;-72
2023/11/10 06:41:28;;;;;;;8.40;4.70;;;;;;;13.40;54.80;101249.90;110015;1285;21951;-71
2023/11/10 06:43:54;;;;;;;12.70;4.40;;;;;;;13.63;54.62;101245.61;110024;1285;22026;-60
2023/11/10 06:46:22;;;;;;;8.90;4.50;;;;;;;13.88;54.39;101238.45;110032;1277;22020;-61
2023/11/10 06:48:52;;;;;;;8.10;4.20;;;;;;;14.12;54.22;101236.20;110006;1285;21926;-71
2023/11/10 06:51:18;;;;;;;7.40;4.10;;;;;;;14.35;54.14;101230.59;110002;1283;21929;-61
2023/11/10 06:53:44;;;;;;;8.10;3.70;;;;;;;14.59;54.07;101226.20;110011;1277;22044;-69
2023/11/10 06:56:10;;;;;;;7.00;3.40;;;;;;;14.83;53.92;101224.59;110020;1279;22435;-65
2023/11/10 06:58:36;;;;;;;6.00;2.70;;;;;;;15.08;52.96;101215.70;110010;1283;21930;-60
2023/11/10 07:01:02;;;;;;;4.10;2.30;;;;;;;15.32;52.65;101212.08;110017;1284;21940;-60
2023/11/10 07:03:28;;;;;;;5.50;2.70;;;;;;;15.55;52.36;101210.91;110014;1285;21906;-70
2023/11/10 07:05:54;;;;;;;4.10;2.10;;;;;;;15.75;51.48;101206.65;108507;1285;1006142;-61
2023/11/10 07:08:20;;;;;;;4.50;2.10;;;;;;;15.96;51.50;101203.04;110015;1285;21946;-60
2023/11/10 07:10:47;;;;;;;5.40;2.10;;;;;;;16.18;51.39;101201.16;110006;1285;22025;-60
2023/11/10 07:13:14;;;;;;;4.90;2.10;;;;;;;16.40;50.80;101199.06;110014;1283;21988;-69
2023/11/10 07:15:40;;;;;;;4.70;2.30;;;;;;;16.57;50.05;101187.30;110015;1281;22412;-60
2023/11/10 07:18:06;;;;;;;5.10;2.60;;;;;;;16.74;49.66;101188.52;110010;1279;21856;-68
2023/11/10 07:20:32;;;;;;;5.20;2.40;;;;;;;16.91;49.81;101187.36;110027;1285;21932;-69
2023/11/10 07:22:58;;;;;;;5.20;2.00;;;;;;;17.07;49.44;101181.14;109973;1279;21961;-69
2023/11/10 07:25:28;;;;;;;5.20;2.00;;;;;;;17.22;49.23;101179.84;110034;1276;21915;-60
2023/11/10 07:27:54;;;;;;;4.70;2.10;;;;;;;17.38;49.44;101177.80;110014;1272;22381;-62
2023/11/10 07:30:21;;;;;;;6.00;2.20;;;;;;;17.55;48.90;101180.54;110025;1276;21930;-60
2023/11/10 07:32:47;;;;;;;3.80;1.80;;;;;;;17.72;48.48;101179.85;110004;1285;21943;-70
2023/11/10 07:35:13;;;;;;;4.10;2.10;;;;;;;17.84;47.61;101174.70;110011;1282;22386;-71
2023/11/10 07:37:44;;;;;;;6.00;2.30;;;;;;;17.98;46.99;101175.92;110033;1272;21906;-74
2023/11/10 07:40:13;;;;;;;7.20;2.90;;;;;;;18.11;47.06;101173.21;110015;1277;21989;-68
2023/11/10 07:42:42;;;;;;;6.10;2.80;;;;;;;18.22;46.98;101171.98;110010;1285;22010;-61
2023/11/10 07:45:14;;;;;;;4.50;2.00;;;;;;;18.37;47.32;101172.95;110003;1285;21938;-74
2023/11/10 07:47:42;;;;;;;6.80;2.30;;;;;;;18.53;46.64;101173.15;110025;1285;21843;-74
2023/11/10 07:50:08;;;;;;;7.20;2.70;;;;;;;18.63;45.62;101166.92;110013;1273;21956;-61
2023/11/10 07:52:34;;;;;;;3.70;1.60;;;;;;;18.74;45.28;101160.52;110018;1284;21930;-73
2023/11/10 07:54:59;;;;;;;3.50;1.20;;;;;;;18.85;45.48;101162.44;110000;1275;22014;-72
2023/11/10 07:57:28;;;;;;;2.40;0.90;;;;;;;18.98;45.54;101159.01;110012;1273;21937;-61
2023/11/10 07:59:54;;;;;;;2.80;1.20;;;;;;;19.09;44.28;101156.86;109995;1279;22017;-71
2023/11/10 08:02:19;;;;;;;4.20;1.70;;;;;;;19.21;44.30;101152.36;110029;1273;21913;-72
2023/11/10 08:04:47;;;;;;;2.40;1.20;;;;;;;19.34;43.79;101152.23;110001;1285;21951;-70
2023/11/10 08:07:13;;;;;;;2.90;0.90;;;;;;;19.47;43.25;101153.70;110012;1285;22410;-71
2023/11/10 08:09:39;;;;;;;2.90;1.10;;;;;;;19.60;44.02;101155.73;110006;1280;21933;-64
2023/11/10 08:12:04;;;;;;;3.70;1.20;;;;;;;19.72;43.36;101152.79;110016;1285;21944;-76
2023/11/10 08:14:30;;;;;;;1.40;0.80;;;;;;;19.81;42.38;101149.40;110011;1273;21934;-76
2023/11/10 08:16:56;;;;;;;2.40;1.20;;;;;;;19.91;42.14;101149.77;110003;1283;21944;-73
2023/11/10 08:19:22;;;;;;;2.50;0.60;;;;;;;19.99;42.07;101152.14;110009;1282;21926;-61
2023/11/10 08:21:48;;;;;;;2.20;0.70;;;;;;;20.07;42.57;101151.28;109997;1276;21949;-61
2023/11/10 08:24:14;;;;;;;3.20;0.80;;;;;;;20.18;42.65;101150.30;110011;1283;21976;-61
2023/11/10 08:26:39;;;;;;;2.70;0.80;;;;;;;20.29;42.50;101150.39;110018;1279;21939;-63
2023/11/10 08:29:07;;;;;;;2.70;0.80;;;;;;;20.36;41.75;101153.84;109990;1285;22001;-75
2023/11/10 08:31:32;;;;;;;1.90;0.70;;;;;;;20.45;41.66;101151.16;110015;1279;22297;-76
2023/11/10 08:33:58;;;;;;;1.80;0.80;;;;;;;20.47;40.50;101154.48;109909;1285;21938;-77
2023/11/10 08:36:25;;;;;;;1.10;0.60;;;;;;;20.49;41.08;101147.79;110007;1285;22029;-70
2023/11/10 08:38:51;;;;;;;1.80;0.70;;;;;;;20.55;40.44;101140.60;109990;1282;21994;-75
2023/11/10 08:41:17;;;;;;;2.60;1.10;;;;;;;20.62;39.90;101136.73;109892;1285;22011;-62
2023/11/10 08:43:43;;;;;;;1.60;0.80;;;;;;;20.68;39.98;101134.16;110023;1285;21961;-75
2023/11/10 08:46:08;;;;;;;3.10;1.40;;;;;;;20.72;39.49;101132.40;110013;1285;21969;-76
2023/11/10 08:48:34;;;;;;;2.70;1.00;;;;;;;20.73;38.59;101133.96;109930;1283;22929;-62
2023/11/10 08:51:00;;;;;;;2.70;1.10;;;;;;;20.79;39.06;101135.71;109999;1281;22154;-74
2023/11/10 08:53:26;;;;;;;6.70;0.90;;;;;;;20.84;38.72;101132.98;109984;1281;21956;-61
2023/11/10 08:55:51;;;;;;;1.50;0.60;;;;;;;20.87;38.36;101131.97;110026;1273;21923;-72
2023/11/10 08:58:18;;;;;;;4.30;0.80;;;;;;;20.89;38.71;101125.64;110015;1285;21930;-70
2023/11/10 09:00:43;;;;;;;1.00;0.60;;;;;;;20.89;38.43;101118.86;110015;1281;21902;-73
2023/11/10 09:03:09;;;;;;;6.70;0.90;;;;;;;20.90;39.24;101115.06;110002;1284;21927;-63
2023/11/10 09:05:35;;;;;;;5.80;1.10;;;;;;;20.98;38.33;101107.60;110009;1283;22004;-62
2023/11/10 09:08:01;;;;;;;3.60;0.70;;;;;;;21.04;38.23;101106.41;110000;1285;21965;-61
2023/11/10 09:10:26;;;;;;;1.70;0.70;;;;;;;21.15;37.71;101107.00;109997;1285;21983;-74
2023/11/10 09:12:52;;;;;;;1.40;0.60;;;;;;;21.27;37.93;101105.21;109990;1285;21959;-63
2023/11/10 09:15:18;;;;;;;2.40;0.80;;;;;;;21.42;37.88;101106.14;110018;1285;21939;-72
2023/11/10 09:17:49;;;;;;;3.10;0.80;;;;;;;21.41;37.24;101099.61;110019;1283;21998;-62
2023/11/10 09:20:15;;;;;;;2.70;0.90;;;;;;;21.27;37.69;101096.64;110026;1285;22407;-73
2023/11/10 09:22:42;;;;;;;3.30;0.80;;;;;;;21.18;38.15;101091.91;107746;1284;1005856;-72
2023/11/10 09:25:09;;;;;;;3.50;0.70;;;;;;;21.18;37.30;101090.66;109996;1274;22099;-72
2023/11/10 09:27:35;;;;;;;3.30;0.60;;;;;;;21.17;37.62;101090.16;110015;1284;21970;-63
2023/11/10 09:30:01;;;;;;;2.70;0.80;;;;;;;21.04;37.74;101085.59;110011;1273;21993;-62
2023/11/10 09:32:27;;;;;;;3.30;0.80;;;;;;;20.92;38.29;101084.67;110004;1285;21964;-64
2023/11/10 09:34:52;;;;;;;2.10;1.00;;;;;;;20.81;38.26;101081.02;109972;1285;21948;-62
2023/11/10 09:37:18;;;;;;;5.30;2.60;;;;;;;20.71;38.34;101079.48;109993;1285;21975;-62
2023/11/10 09:39:46;;;;;;;1.90;0.90;;;;;;;20.66;38.45;101075.60;109935;1283;22494;-73
2023/11/10 09:42:12;;;;;;;3.60;1.80;;;;;;;20.74;38.22;101070.80;109997;1285;22346;-73
2023/11/10 09:44:46;;;;;;;2.40;1.20;;;;;;;20.92;38.74;101066.09;110005;1281;22010;-73
2023/11/10 09:47:11;;;;;;;1.70;1.00;;;;;;;20.99;38.38;101061.34;109954;1284;22039;-74
2023/11/10 09:49:37;;;;;;;1.70;0.50;;;;;;;20.99;38.30;101054.95;109947;1285;22002;-73
2023/11/10 09:52:03;;;;;;;3.80;0.60;;;;;;;21.00;38.16;101051.30;109858;1285;22079;-72
2023/11/10 09:54:31;;;;;;;2.20;0.90;;;;;;;21.10;37.78;101061.05;109999;1285;22028;-75
2023/11/10 09:56:57;;;;;;;1.40;0.50;;;;;;;21.06;36.99;101061.92;109959;1285;22017;-74
2023/11/10 09:59:27;;;;;;;2.20;0.60;;;;;;;20.99;37.40;101052.61;109915;1285;21973;-74
2023/11/10 10:01:53;;;;;;;1.40;0.70;;;;;;;20.91;38.07;101042.79;109959;1284;22785;-63
2023/11/10 10:04:19;;;;;;;2.50;0.70;;;;;;;20.86;38.11;101036.40;110014;1285;21996;-73
2023/11/10 10:06:51;;;;;;;1.70;0.70;;;;;;;20.83;37.78;101032.98;109762;1272;22203;-61
2023/11/10 10:09:18;;;;;;;2.20;0.60;;;;;;;20.96;38.29;101035.80;109620;1285;21990;-62
2023/11/10 10:11:44;;;;;;;1.90;0.50;;;;;;;21.03;37.71;101032.98;110012;1279;21969;-73
2023/11/10 10:14:11;;;;;;;1.30;0.60;;;;;;;20.99;37.78;101028.86;109897;1285;21999;-73
2023/11/10 10:16:36;;;;;;;3.20;0.70;;;;;;;20.92;37.70;101020.42;110007;1285;21964;-73
2023/11/10 10:19:04;;;;;;;2.20;0.60;;;;;;;20.98;37.69;101018.55;109254;1285;1002550;-74
2023/11/10 10:21:40;;;;;;;2.30;0.50;;;;;;;21.12;37.22;101019.17;110004;1281;22007;-66
2023/11/10 10:24:06;;;;;;;3.50;0.60;;;;;;;21.15;37.28;101016.35;110006;1285;21950;-61
2023/11/10 10:26:33;;;;;;;1.20;0.70;;;;;;;21.07;37.45;101010.68;110008;1285;21914;-72
2023/11/10 10:29:00;;;;;;;1.80;0.60;;;;;;;21.02;37.95;101006.25;110027;1285;22004;-73
2023/11/10 10:31:29;;;;;;;1.90;0.60;;;;;;;21.01;38.10;101000.05;109955;1285;21951;-61
2023/11/10 10:33:55;;;;;;;1.40;0.60;;;;;;;20.96;37.10;100993.16;109988;1285;21833;-73
2023/11/10 10:36:20;;;;;;;1.40;0.60;;;;;;;20.97;37.30;100996.17;109991;1283;21952;-72
2023/11/10 10:38:47;;;;;;;2.20;0.90;;;;;;;20.95;37.48;100989.63;110021;1285;21944;-63
2023/11/10 10:41:14;;;;;;;1.00;0.50;;;;;;;20.88;37.71;100986.75;109957;1285;21996;-61
2023/11/10 10:43:40;;;;;;;2.20;0.70;;;;;;;20.83;37.69;100985.39;109868;1284;21953;-73
2023/11/10 10:46:07;;;;;;;2.70;0.70;;;;;;;20.77;37.74;100983.11;110003;1285;21927;-61
2023/11/10 10:48:32;;;;;;;2.80;0.60;;;;;;;20.72;37.73;100978.71;109870;1285;21954;-72
2023/11/10 10:50:59;;;;;;;1.60;0.40;;;;;;;20.70;37.49;100974.88;109980;1279;22005;-71
2023/11/10 10:53:24;;;;;;;1.40;0.50;;;;;;;20.77;37.87;100974.54;109983;1279;21972;-61
2023/11/10 10:55:53;;;;;;;1.60;0.50;;;;;;;20.79;37.79;100973.24;110015;1285;21959;-72
2023/11/10 10:58:20;;;;;;;1.70;0.70;;;;;;;20.86;38.07;100968.30;107738;1276;1002956;-72
2023/11/10 11:00:46;;;;;;;1.50;0.60;;;;;;;20.86;37.78;100965.44;110017;1285;21899;-62
2023/11/10 11:03:33;;;;;;;1.40;0.60;;;;;;;20.85;37.79;100962.30;110008;1279;22001;-72
2023/11/10 11:06:24;;;;;;;3.00;0.90;;;;;;;20.86;37.56;100956.52;110028;1285;21777;-62
2023/11/10 11:09:06;;;;;;;1.70;0.70;;;;;;;21.03;37.44;100957.70;109997;1278;21936;-72
2023/11/10 11:11:59;;;;;;;1.40;0.50;;;;;;;21.25;37.25;100955.59;109973;1285;22000;-62
2023/11/10 11:14:37;;;;;;;2.10;0.60;;;;;;;21.53;37.16;100951.91;110023;1285;21928;-61